sensor_id;sensor_type;location;lat;lon;timestamp;pressure;altitude;pressure_sealevel;temperature;humidity
73594;BME280;64760;53.404;23.498;2023-02-08T00:00:49;102214.22;;;-0.77;81.82
73594;BME280;64760;53.404;23.498;2023-02-08T00:03:26;102226.38;;;-0.75;82.22
73594;BME280;64760;53.404;23.498;2023-02-08T00:05:54;102218.44;;;-0.73;81.90
73594;BME280;64760;53.404;23.498;2023-02-08T00:08:23;102223.09;;;-0.60;81.33
73594;BME280;64760;53.404;23.498;2023-02-08T00:10:49;102221.44;;;-0.82;81.32
73594;BME280;64760;53.404;23.498;2023-02-08T00:13:16;102222.16;;;-0.79;81.53
73594;BME280;64760;53.404;23.498;2023-02-08T00:15:44;102226.53;;;-0.78;81.88
73594;BME280;64760;53.404;23.498;2023-02-08T00:18:10;102223.94;;;-0.79;81.43
73594;BME280;64760;53.404;23.498;2023-02-08T00:20:38;102226.53;;;-0.78;81.76
73594;BME280;64760;53.404;23.498;2023-02-08T00:23:05;102227.50;;;-0.80;81.32
73594;BME280;64760;53.404;23.498;2023-02-08T00:25:33;102229.81;;;-0.73;80.91
73594;BME280;64760;53.404;23.498;2023-02-08T00:28:00;102228.25;;;-0.77;80.50
73594;BME280;64760;53.404;23.498;2023-02-08T00:30:27;102225.16;;;-0.66;80.25
73594;BME280;64760;53.404;23.498;2023-02-08T00:32:54;102220.88;;;-0.69;80.03
73594;BME280;64760;53.404;23.498;2023-02-08T00:35:21;102231.56;;;-0.72;80.33
73594;BME280;64760;53.404;23.498;2023-02-08T00:37:47;102237.31;;;-0.64;79.99
73594;BME280;64760;53.404;23.498;2023-02-08T00:40:14;102227.88;;;-0.68;80.21
73594;BME280;64760;53.404;23.498;2023-02-08T00:42:40;102221.38;;;-0.81;80.17
73594;BME280;64760;53.404;23.498;2023-02-08T00:45:09;102226.56;;;-0.79;79.82
73594;BME280;64760;53.404;23.498;2023-02-08T00:47:36;102220.75;;;-0.87;80.19
73594;BME280;64760;53.404;23.498;2023-02-08T00:50:09;102220.53;;;-0.81;80.06
73594;BME280;64760;53.404;23.498;2023-02-08T00:52:35;102229.41;;;-0.84;80.46
73594;BME280;64760;53.404;23.498;2023-02-08T00:55:04;102229.63;;;-0.68;80.12
73594;BME280;64760;53.404;23.498;2023-02-08T00:57:32;102229.06;;;-0.55;79.27
73594;BME280;64760;53.404;23.498;2023-02-08T00:59:58;102231.16;;;-0.42;78.80
73594;BME280;64760;53.404;23.498;2023-02-08T01:02:25;102232.50;;;-0.32;77.84
73594;BME280;64760;53.404;23.498;2023-02-08T01:04:53;102236.59;;;-0.25;77.22
73594;BME280;64760;53.404;23.498;2023-02-08T01:07:19;102235.03;;;-0.51;78.06
73594;BME280;64760;53.404;23.498;2023-02-08T01:09:46;102239.16;;;-0.44;78.12
73594;BME280;64760;53.404;23.498;2023-02-08T01:12:12;102248.09;;;-0.28;77.87
73594;BME280;64760;53.404;23.498;2023-02-08T01:14:39;102237.63;;;-0.50;77.61
73594;BME280;64760;53.404;23.498;2023-02-08T01:17:06;102252.50;;;-0.49;78.47
73594;BME280;64760;53.404;23.498;2023-02-08T01:19:33;102244.09;;;-0.36;77.56
73594;BME280;64760;53.404;23.498;2023-02-08T01:22:02;102252.63;;;-0.31;77.27
73594;BME280;64760;53.404;23.498;2023-02-08T01:24:29;102254.69;;;-0.18;76.58
73594;BME280;64760;53.404;23.498;2023-02-08T01:26:56;102256.41;;;-0.17;76.34
73594;BME280;64760;53.404;23.498;2023-02-08T01:29:24;102246.84;;;-0.19;76.51
73594;BME280;64760;53.404;23.498;2023-02-08T01:31:51;102265.44;;;-0.22;76.47
73594;BME280;64760;53.404;23.498;2023-02-08T01:34:17;102271.28;;;-0.16;76.31
73594;BME280;64760;53.404;23.498;2023-02-08T01:36:45;102256.75;;;-0.24;76.51
73594;BME280;64760;53.404;23.498;2023-02-08T01:39:12;102259.63;;;-0.30;77.21
73594;BME280;64760;53.404;23.498;2023-02-08T01:41:41;102251.72;;;-0.30;76.33
73594;BME280;64760;53.404;23.498;2023-02-08T01:46:40;102270.97;;;-0.08;75.68
73594;BME280;64760;53.404;23.498;2023-02-08T01:49:35;102261.53;;;-0.14;75.94
73594;BME280;64760;53.404;23.498;2023-02-08T01:52:13;102274.34;;;-0.05;75.72
73594;BME280;64760;53.404;23.498;2023-02-08T01:54:46;102264.66;;;-0.24;75.67
73594;BME280;64760;53.404;23.498;2023-02-08T01:57:15;102268.53;;;-0.13;75.67
73594;BME280;64760;53.404;23.498;2023-02-08T01:59:45;102263.97;;;-0.29;75.59
73594;BME280;64760;53.404;23.498;2023-02-08T02:02:38;102269.94;;;-0.24;75.76
73594;BME280;64760;53.404;23.498;2023-02-08T02:05:21;102265.09;;;-0.15;75.58
73594;BME280;64760;53.404;23.498;2023-02-08T02:07:48;102271.50;;;-0.20;75.91
73594;BME280;64760;53.404;23.498;2023-02-08T02:10:21;102267.88;;;-0.18;75.80
73594;BME280;64760;53.404;23.498;2023-02-08T02:12:50;102276.63;;;-0.17;75.62
73594;BME280;64760;53.404;23.498;2023-02-08T02:15:17;102267.69;;;-0.13;75.64
73594;BME280;64760;53.404;23.498;2023-02-08T02:17:45;102264.13;;;-0.12;75.68
73594;BME280;64760;53.404;23.498;2023-02-08T02:20:23;102266.44;;;-0.05;75.06
73594;BME280;64760;53.404;23.498;2023-02-08T02:42:16;102282.22;;;-0.45;77.27
73594;BME280;64760;53.404;23.498;2023-02-08T02:50:28;102283.53;;;-0.77;78.66
73594;BME280;64760;53.404;23.498;2023-02-08T02:56:01;102284.06;;;-0.90;80.88
73594;BME280;64760;53.404;23.498;2023-02-08T02:58:30;102296.69;;;-0.99;80.96
73594;BME280;64760;53.404;23.498;2023-02-08T03:00:59;102293.00;;;-0.95;80.87
73594;BME280;64760;53.404;23.498;2023-02-08T03:03:27;102296.31;;;-0.89;80.81
73594;BME280;64760;53.404;23.498;2023-02-08T03:06:01;102294.00;;;-0.97;80.33
73594;BME280;64760;53.404;23.498;2023-02-08T03:11:22;102304.28;;;-0.91;79.75
73594;BME280;64760;53.404;23.498;2023-02-08T03:14:22;102299.56;;;-0.83;79.94
73594;BME280;64760;53.404;23.498;2023-02-08T03:17:17;102312.91;;;-0.87;80.13
73594;BME280;64760;53.404;23.498;2023-02-08T03:19:52;102312.00;;;-0.86;80.33
73594;BME280;64760;53.404;23.498;2023-02-08T03:22:49;102309.91;;;-1.00;80.61
73594;BME280;64760;53.404;23.498;2023-02-08T03:25:20;102316.53;;;-0.90;80.20
73594;BME280;64760;53.404;23.498;2023-02-08T03:28:06;102308.66;;;-0.91;80.31
73594;BME280;64760;53.404;23.498;2023-02-08T03:31:04;102315.63;;;-0.89;80.18
73594;BME280;64760;53.404;23.498;2023-02-08T03:33:41;102308.03;;;-0.97;80.00
73594;BME280;64760;53.404;23.498;2023-02-08T03:36:25;102312.06;;;-0.88;79.76
73594;BME280;64760;53.404;23.498;2023-02-08T03:38:56;102317.44;;;-0.91;79.86
73594;BME280;64760;53.404;23.498;2023-02-08T03:41:29;102317.06;;;-0.82;79.43
73594;BME280;64760;53.404;23.498;2023-02-08T03:44:01;102328.81;;;-0.90;79.12
73594;BME280;64760;53.404;23.498;2023-02-08T03:46:40;102327.88;;;-0.88;78.81
73594;BME280;64760;53.404;23.498;2023-02-08T03:49:15;102329.94;;;-0.96;79.46
73594;BME280;64760;53.404;23.498;2023-02-08T03:51:44;102324.31;;;-1.10;78.92
73594;BME280;64760;53.404;23.498;2023-02-08T03:54:20;102329.25;;;-1.01;78.29
73594;BME280;64760;53.404;23.498;2023-02-08T03:57:17;102340.16;;;-0.88;77.70
73594;BME280;64760;53.404;23.498;2023-02-08T03:59:51;102338.31;;;-0.86;77.93
73594;BME280;64760;53.404;23.498;2023-02-08T04:02:20;102348.00;;;-0.87;77.86
73594;BME280;64760;53.404;23.498;2023-02-08T04:04:49;102341.63;;;-0.81;77.61
73594;BME280;64760;53.404;23.498;2023-02-08T04:07:17;102343.34;;;-0.80;77.92
73594;BME280;64760;53.404;23.498;2023-02-08T04:09:44;102339.19;;;-0.86;78.41
73594;BME280;64760;53.404;23.498;2023-02-08T04:12:11;102344.81;;;-0.73;78.30
73594;BME280;64760;53.404;23.498;2023-02-08T04:14:37;102339.88;;;-0.81;78.43
73594;BME280;64760;53.404;23.498;2023-02-08T04:17:04;102345.44;;;-0.88;78.85
73594;BME280;64760;53.404;23.498;2023-02-08T04:19:30;102347.25;;;-0.90;78.87
73594;BME280;64760;53.404;23.498;2023-02-08T04:21:57;102353.19;;;-0.85;79.04
73594;BME280;64760;53.404;23.498;2023-02-08T04:24:24;102355.09;;;-0.89;79.17
73594;BME280;64760;53.404;23.498;2023-02-08T04:26:51;102355.88;;;-0.87;79.01
73594;BME280;64760;53.404;23.498;2023-02-08T04:29:18;102348.38;;;-0.96;79.29
73594;BME280;64760;53.404;23.498;2023-02-08T04:31:44;102343.84;;;-0.92;79.15
73594;BME280;64760;53.404;23.498;2023-02-08T04:34:11;102350.53;;;-1.07;79.01
73594;BME280;64760;53.404;23.498;2023-02-08T04:36:38;102344.53;;;-1.11;78.24
73594;BME280;64760;53.404;23.498;2023-02-08T04:39:04;102352.81;;;-0.98;78.04
73594;BME280;64760;53.404;23.498;2023-02-08T04:41:34;102369.28;;;-0.93;78.11
73594;BME280;64760;53.404;23.498;2023-02-08T04:44:00;102354.41;;;-0.94;77.52
73594;BME280;64760;53.404;23.498;2023-02-08T04:46:27;102369.41;;;-0.96;76.99
73594;BME280;64760;53.404;23.498;2023-02-08T04:48:53;102366.72;;;-0.95;76.38
73594;BME280;64760;53.404;23.498;2023-02-08T04:51:19;102369.28;;;-0.93;76.16
73594;BME280;64760;53.404;23.498;2023-02-08T04:53:46;102364.25;;;-0.99;76.45
73594;BME280;64760;53.404;23.498;2023-02-08T04:56:12;102354.09;;;-1.08;75.85
73594;BME280;64760;53.404;23.498;2023-02-08T04:58:40;102363.41;;;-1.00;76.06
73594;BME280;64760;53.404;23.498;2023-02-08T05:01:07;102361.44;;;-0.95;76.46
73594;BME280;64760;53.404;23.498;2023-02-08T05:03:35;102369.50;;;-0.99;76.23
73594;BME280;64760;53.404;23.498;2023-02-08T05:06:04;102367.69;;;-0.97;75.76
73594;BME280;64760;53.404;23.498;2023-02-08T05:11:26;102371.34;;;-1.01;76.45
73594;BME280;64760;53.404;23.498;2023-02-08T05:13:52;102371.13;;;-0.95;76.40
73594;BME280;64760;53.404;23.498;2023-02-08T05:16:19;102376.66;;;-1.03;77.08
73594;BME280;64760;53.404;23.498;2023-02-08T05:18:45;102373.69;;;-0.93;77.06
73594;BME280;64760;53.404;23.498;2023-02-08T05:21:12;102370.44;;;-1.00;77.29
73594;BME280;64760;53.404;23.498;2023-02-08T05:23:38;102370.19;;;-0.94;77.39
73594;BME280;64760;53.404;23.498;2023-02-08T05:26:09;102364.16;;;-0.96;77.47
73594;BME280;64760;53.404;23.498;2023-02-08T05:28:36;102372.44;;;-1.07;78.02
73594;BME280;64760;53.404;23.498;2023-02-08T05:31:10;102375.03;;;-1.05;78.21
73594;BME280;64760;53.404;23.498;2023-02-08T05:33:36;102374.03;;;-1.03;78.05
73594;BME280;64760;53.404;23.498;2023-02-08T05:36:03;102376.84;;;-1.07;77.92
73594;BME280;64760;53.404;23.498;2023-02-08T05:38:29;102368.91;;;-1.06;78.26
73594;BME280;64760;53.404;23.498;2023-02-08T05:40:58;102377.50;;;-1.01;77.65
73594;BME280;64760;53.404;23.498;2023-02-08T05:43:24;102378.91;;;-1.15;78.63
73594;BME280;64760;53.404;23.498;2023-02-08T05:45:51;102376.06;;;-1.09;78.76
73594;BME280;64760;53.404;23.498;2023-02-08T05:48:17;102362.81;;;-1.31;78.62
73594;BME280;64760;53.404;23.498;2023-02-08T05:50:44;102385.25;;;-1.21;78.76
73594;BME280;64760;53.404;23.498;2023-02-08T05:53:13;102386.91;;;-1.18;78.50
73594;BME280;64760;53.404;23.498;2023-02-08T05:55:43;102392.69;;;-1.32;77.85
73594;BME280;64760;53.404;23.498;2023-02-08T05:58:15;102388.81;;;-1.22;77.26
73594;BME280;64760;53.404;23.498;2023-02-08T06:00:42;102398.13;;;-1.13;76.96
73594;BME280;64760;53.404;23.498;2023-02-08T06:03:09;102399.22;;;-1.19;76.95
73594;BME280;64760;53.404;23.498;2023-02-08T06:05:37;102407.47;;;-1.28;77.07
73594;BME280;64760;53.404;23.498;2023-02-08T06:08:04;102397.72;;;-1.26;77.09
73594;BME280;64760;53.404;23.498;2023-02-08T06:10:31;102408.88;;;-1.19;77.14
73594;BME280;64760;53.404;23.498;2023-02-08T06:12:57;102409.22;;;-1.28;77.12
73594;BME280;64760;53.404;23.498;2023-02-08T06:15:24;102408.66;;;-1.13;76.85
73594;BME280;64760;53.404;23.498;2023-02-08T06:17:50;102410.88;;;-1.03;76.89
73594;BME280;64760;53.404;23.498;2023-02-08T06:20:17;102410.25;;;-1.09;77.10
73594;BME280;64760;53.404;23.498;2023-02-08T06:22:43;102419.94;;;-1.10;76.34
73594;BME280;64760;53.404;23.498;2023-02-08T06:25:10;102433.09;;;-1.10;76.01
73594;BME280;64760;53.404;23.498;2023-02-08T06:27:36;102432.31;;;-1.12;76.21
73594;BME280;64760;53.404;23.498;2023-02-08T06:30:03;102424.22;;;-1.07;76.17
73594;BME280;64760;53.404;23.498;2023-02-08T06:32:30;102427.31;;;-0.96;76.06
73594;BME280;64760;53.404;23.498;2023-02-08T06:34:57;102421.19;;;-0.97;76.22
73594;BME280;64760;53.404;23.498;2023-02-08T06:37:23;102415.94;;;-0.97;75.96
73594;BME280;64760;53.404;23.498;2023-02-08T06:39:49;102419.34;;;-0.95;72.57
73594;BME280;64760;53.404;23.498;2023-02-08T06:42:16;102422.38;;;-0.82;71.95
73594;BME280;64760;53.404;23.498;2023-02-08T06:44:43;102427.31;;;-0.73;71.93
73594;BME280;64760;53.404;23.498;2023-02-08T06:47:09;102424.31;;;-0.64;72.29
73594;BME280;64760;53.404;23.498;2023-02-08T06:49:36;102423.22;;;-0.58;73.44
73594;BME280;64760;53.404;23.498;2023-02-08T06:52:02;102423.91;;;-0.53;74.16
73594;BME280;64760;53.404;23.498;2023-02-08T06:54:29;102436.91;;;-0.49;74.29
73594;BME280;64760;53.404;23.498;2023-02-08T06:56:56;102428.28;;;-0.52;74.30
73594;BME280;64760;53.404;23.498;2023-02-08T06:59:22;102423.91;;;-0.53;74.69
73594;BME280;64760;53.404;23.498;2023-02-08T07:01:48;102417.75;;;-0.52;74.49
73594;BME280;64760;53.404;23.498;2023-02-08T07:04:16;102422.69;;;-0.44;74.68
73594;BME280;64760;53.404;23.498;2023-02-08T07:06:47;102421.72;;;-0.42;74.96
73594;BME280;64760;53.404;23.498;2023-02-08T07:09:15;102423.34;;;-0.39;74.98
73594;BME280;64760;53.404;23.498;2023-02-08T07:11:41;102435.63;;;-0.38;74.39
73594;BME280;64760;53.404;23.498;2023-02-08T07:14:11;102430.59;;;-0.44;74.88
73594;BME280;64760;53.404;23.498;2023-02-08T07:16:38;102427.78;;;-0.40;74.65
73594;BME280;64760;53.404;23.498;2023-02-08T07:19:05;102433.84;;;-0.38;75.07
73594;BME280;64760;53.404;23.498;2023-02-08T07:21:31;102436.34;;;-0.35;74.63
73594;BME280;64760;53.404;23.498;2023-02-08T07:23:58;102435.09;;;-0.25;74.42
73594;BME280;64760;53.404;23.498;2023-02-08T07:26:24;102441.69;;;-0.15;74.16
73594;BME280;64760;53.404;23.498;2023-02-08T07:28:50;102439.53;;;-0.27;74.44
73594;BME280;64760;53.404;23.498;2023-02-08T07:31:17;102434.66;;;-0.14;74.30
73594;BME280;64760;53.404;23.498;2023-02-08T07:33:43;102438.00;;;-0.11;74.57
73594;BME280;64760;53.404;23.498;2023-02-08T07:36:10;102428.59;;;-0.16;74.70
73594;BME280;64760;53.404;23.498;2023-02-08T07:38:39;102435.63;;;-0.17;75.34
73594;BME280;64760;53.404;23.498;2023-02-08T07:41:08;102439.56;;;-0.05;75.01
73594;BME280;64760;53.404;23.498;2023-02-08T07:43:37;102440.41;;;-0.05;74.95
73594;BME280;64760;53.404;23.498;2023-02-08T07:46:10;102439.91;;;-0.14;74.95
73594;BME280;64760;53.404;23.498;2023-02-08T07:48:37;102456.22;;;-0.05;74.74
73594;BME280;64760;53.404;23.498;2023-02-08T07:51:03;102457.19;;;-0.07;74.48
73594;BME280;64760;53.404;23.498;2023-02-08T07:53:31;102459.00;;;0.13;74.52
73594;BME280;64760;53.404;23.498;2023-02-08T07:56:01;102453.88;;;0.10;74.16
73594;BME280;64760;53.404;23.498;2023-02-08T07:58:30;102453.38;;;0.22;73.43
73594;BME280;64760;53.404;23.498;2023-02-08T08:00:57;102454.09;;;0.25;73.36
73594;BME280;64760;53.404;23.498;2023-02-08T08:03:24;102461.06;;;0.06;72.99
73594;BME280;64760;53.404;23.498;2023-02-08T08:05:50;102461.31;;;0.00;73.13
73594;BME280;64760;53.404;23.498;2023-02-08T08:08:18;102462.25;;;-0.01;72.63
73594;BME280;64760;53.404;23.498;2023-02-08T08:14:06;102480.47;;;0.25;72.83
73594;BME280;64760;53.404;23.498;2023-02-08T08:16:32;102468.09;;;0.27;72.56
73594;BME280;64760;53.404;23.498;2023-02-08T08:18:59;102478.47;;;0.32;72.88
73594;BME280;64760;53.404;23.498;2023-02-08T08:21:25;102483.19;;;0.44;72.60
73594;BME280;64760;53.404;23.498;2023-02-08T08:23:52;102473.31;;;0.49;73.01
73594;BME280;64760;53.404;23.498;2023-02-08T08:26:20;102482.47;;;0.40;72.82
73594;BME280;64760;53.404;23.498;2023-02-08T08:28:47;102482.97;;;0.50;72.57
73594;BME280;64760;53.404;23.498;2023-02-08T08:31:15;102480.69;;;0.41;72.02
73594;BME280;64760;53.404;23.498;2023-02-08T08:33:43;102480.16;;;0.33;72.43
73594;BME280;64760;53.404;23.498;2023-02-08T08:36:09;102488.88;;;0.35;72.78
73594;BME280;64760;53.404;23.498;2023-02-08T08:38:36;102490.56;;;0.36;72.48
73594;BME280;64760;53.404;23.498;2023-02-08T08:41:13;102499.03;;;0.24;72.35
73594;BME280;64760;53.404;23.498;2023-02-08T08:43:45;102496.66;;;0.16;71.88
73594;BME280;64760;53.404;23.498;2023-02-08T08:46:11;102490.34;;;0.20;72.08
73594;BME280;64760;53.404;23.498;2023-02-08T08:48:38;102493.66;;;0.25;71.83
73594;BME280;64760;53.404;23.498;2023-02-08T08:51:05;102492.47;;;0.32;71.90
73594;BME280;64760;53.404;23.498;2023-02-08T08:53:33;102485.69;;;0.27;71.30
73594;BME280;64760;53.404;23.498;2023-02-08T08:56:02;102483.53;;;0.57;70.69
73594;BME280;64760;53.404;23.498;2023-02-08T08:58:30;102484.94;;;0.65;70.98
73594;BME280;64760;53.404;23.498;2023-02-08T09:00:57;102482.09;;;0.70;71.28
73594;BME280;64760;53.404;23.498;2023-02-08T09:03:25;102486.81;;;0.83;70.78
73594;BME280;64760;53.404;23.498;2023-02-08T09:05:52;102492.31;;;0.77;69.15
73594;BME280;64760;53.404;23.498;2023-02-08T09:08:19;102490.56;;;0.78;69.07
73594;BME280;64760;53.404;23.498;2023-02-08T09:10:45;102501.69;;;0.84;67.97
73594;BME280;64760;53.404;23.498;2023-02-08T09:13:12;102500.97;;;0.81;67.07
73594;BME280;64760;53.404;23.498;2023-02-08T09:15:44;102505.56;;;0.96;67.41
73594;BME280;64760;53.404;23.498;2023-02-08T09:18:11;102507.06;;;1.03;68.55
73594;BME280;64760;53.404;23.498;2023-02-08T09:20:38;102510.47;;;1.05;68.29
73594;BME280;64760;53.404;23.498;2023-02-08T09:23:06;102507.09;;;1.22;67.35
73594;BME280;64760;53.404;23.498;2023-02-08T09:25:35;102510.22;;;1.11;66.95
73594;BME280;64760;53.404;23.498;2023-02-08T09:28:02;102504.53;;;0.80;67.47
73594;BME280;64760;53.404;23.498;2023-02-08T09:30:29;102506.19;;;1.03;66.90
73594;BME280;64760;53.404;23.498;2023-02-08T09:32:55;102502.03;;;0.97;67.31
73594;BME280;64760;53.404;23.498;2023-02-08T09:35:21;102508.69;;;0.85;66.74
73594;BME280;64760;53.404;23.498;2023-02-08T09:37:48;102500.31;;;0.76;67.40
73594;BME280;64760;53.404;23.498;2023-02-08T09:40:22;102496.03;;;0.73;67.01
73594;BME280;64760;53.404;23.498;2023-02-08T09:43:21;102495.56;;;0.64;67.04
73594;BME280;64760;53.404;23.498;2023-02-08T09:46:07;102498.66;;;0.73;65.31
73594;BME280;64760;53.404;23.498;2023-02-08T09:48:39;102503.47;;;1.04;64.59
73594;BME280;64760;53.404;23.498;2023-02-08T09:54:00;102489.34;;;0.65;66.19
73594;BME280;64760;53.404;23.498;2023-02-08T09:56:34;102489.50;;;0.62;66.19
73594;BME280;64760;53.404;23.498;2023-02-08T09:59:02;102492.59;;;0.51;66.02
73594;BME280;64760;53.404;23.498;2023-02-08T10:01:31;102486.69;;;0.44;66.33
73594;BME280;64760;53.404;23.498;2023-02-08T10:04:34;102488.09;;;0.53;67.29
73594;BME280;64760;53.404;23.498;2023-02-08T10:07:02;102491.22;;;0.63;65.55
73594;BME280;64760;53.404;23.498;2023-02-08T10:09:29;102486.91;;;0.60;63.79
73594;BME280;64760;53.404;23.498;2023-02-08T10:12:40;102481.91;;;0.94;62.57
73594;BME280;64760;53.404;23.498;2023-02-08T10:15:32;102472.03;;;0.59;63.46
73594;BME280;64760;53.404;23.498;2023-02-08T10:29:14;102476.44;;;0.79;64.14
73594;BME280;64760;53.404;23.498;2023-02-08T10:32:05;102473.25;;;0.51;62.95
73594;BME280;64760;53.404;23.498;2023-02-08T10:34:59;102481.25;;;0.69;63.12
73594;BME280;64760;53.404;23.498;2023-02-08T10:37:31;102474.97;;;0.72;62.56
73594;BME280;64760;53.404;23.498;2023-02-08T10:40:14;102474.19;;;0.70;62.12
73594;BME280;64760;53.404;23.498;2023-02-08T10:43:41;102464.63;;;0.67;62.58
73594;BME280;64760;53.404;23.498;2023-02-08T10:51:16;102462.56;;;0.94;62.11
73594;BME280;64760;53.404;23.498;2023-02-08T10:53:45;102455.63;;;1.30;61.08
73594;BME280;64760;53.404;23.498;2023-02-08T10:58:57;102447.94;;;1.24;60.35
73594;BME280;64760;53.404;23.498;2023-02-08T11:01:25;102446.81;;;1.11;60.46
73594;BME280;64760;53.404;23.498;2023-02-08T11:04:08;102445.00;;;0.73;61.15
73594;BME280;64760;53.404;23.498;2023-02-08T11:06:37;102444.06;;;0.94;60.87
73594;BME280;64760;53.404;23.498;2023-02-08T11:09:04;102439.66;;;0.94;60.38
73594;BME280;64760;53.404;23.498;2023-02-08T11:11:38;102452.25;;;0.88;61.41
73594;BME280;64760;53.404;23.498;2023-02-08T11:14:14;102452.94;;;0.53;62.18
73594;BME280;64760;53.404;23.498;2023-02-08T11:16:49;102441.06;;;0.83;61.41
73594;BME280;64760;53.404;23.498;2023-02-08T11:19:32;102445.66;;;1.35;59.72
73594;BME280;64760;53.404;23.498;2023-02-08T11:22:01;102447.53;;;1.15;60.83
73594;BME280;64760;53.404;23.498;2023-02-08T11:24:34;102430.69;;;0.78;61.55
73594;BME280;64760;53.404;23.498;2023-02-08T11:32:35;102436.94;;;0.96;62.00
73594;BME280;64760;53.404;23.498;2023-02-08T11:37:36;102430.88;;;0.94;61.48
73594;BME280;64760;53.404;23.498;2023-02-08T11:40:03;102435.44;;;1.09;61.31
73594;BME280;64760;53.404;23.498;2023-02-08T11:42:34;102431.25;;;1.05;60.62
73594;BME280;64760;53.404;23.498;2023-02-08T11:45:03;102421.97;;;1.15;61.67
73594;BME280;64760;53.404;23.498;2023-02-08T11:47:30;102423.56;;;1.19;61.28
73594;BME280;64760;53.404;23.498;2023-02-08T11:50:01;102419.66;;;1.08;60.16
73594;BME280;64760;53.404;23.498;2023-02-08T11:52:30;102411.53;;;0.93;60.63
73594;BME280;64760;53.404;23.498;2023-02-08T11:57:53;102407.81;;;0.59;61.06
73594;BME280;64760;53.404;23.498;2023-02-08T12:00:23;102394.47;;;0.82;60.63
73594;BME280;64760;53.404;23.498;2023-02-08T12:02:57;102428.50;;;0.68;60.70
73594;BME280;64760;53.404;23.498;2023-02-08T12:05:34;102424.56;;;0.58;61.46
73594;BME280;64760;53.404;23.498;2023-02-08T12:11:09;102403.00;;;0.48;61.51
73594;BME280;64760;53.404;23.498;2023-02-08T12:13:43;102415.66;;;0.40;62.53
73594;BME280;64760;53.404;23.498;2023-02-08T12:16:59;102409.94;;;0.30;61.97
73594;BME280;64760;53.404;23.498;2023-02-08T12:19:33;102416.28;;;0.46;62.73
73594;BME280;64760;53.404;23.498;2023-02-08T12:22:17;102407.47;;;0.66;62.46
73594;BME280;64760;53.404;23.498;2023-02-08T12:27:49;102418.81;;;0.48;62.25
73594;BME280;64760;53.404;23.498;2023-02-08T12:30:28;102421.59;;;0.65;62.15
73594;BME280;64760;53.404;23.498;2023-02-08T12:38:37;102413.25;;;0.56;61.76
73594;BME280;64760;53.404;23.498;2023-02-08T12:47:43;102424.94;;;0.28;62.01
73594;BME280;64760;53.404;23.498;2023-02-08T12:53:04;102418.81;;;0.48;62.29
73594;BME280;64760;53.404;23.498;2023-02-08T12:55:37;102419.63;;;0.50;62.38
73594;BME280;64760;53.404;23.498;2023-02-08T13:00:54;102428.97;;;0.37;61.98
73594;BME280;64760;53.404;23.498;2023-02-08T13:06:24;102421.78;;;0.40;61.45
73594;BME280;64760;53.404;23.498;2023-02-08T13:08:57;102423.84;;;0.74;60.63
73594;BME280;64760;53.404;23.498;2023-02-08T13:14:01;102408.66;;;0.79;59.80
73594;BME280;64760;53.404;23.498;2023-02-08T13:16:34;102422.16;;;0.92;59.41
73594;BME280;64760;53.404;23.498;2023-02-08T13:21:51;102427.22;;;0.37;61.13
73594;BME280;64760;53.404;23.498;2023-02-08T13:26:54;102423.56;;;0.40;61.13
73594;BME280;64760;53.404;23.498;2023-02-08T13:29:21;102403.47;;;0.17;61.18
73594;BME280;64760;53.404;23.498;2023-02-08T13:31:52;102417.13;;;0.67;60.31
73594;BME280;64760;53.404;23.498;2023-02-08T13:37:24;102412.13;;;0.80;59.95
73594;BME280;64760;53.404;23.498;2023-02-08T13:42:38;102398.56;;;0.48;60.45
73594;BME280;64760;53.404;23.498;2023-02-08T13:45:09;102399.28;;;0.52;61.04
73594;BME280;64760;53.404;23.498;2023-02-08T13:47:49;102404.69;;;0.69;60.88
73594;BME280;64760;53.404;23.498;2023-02-08T13:53:03;102386.59;;;0.41;61.27
73594;BME280;64760;53.404;23.498;2023-02-08T13:58:01;102407.00;;;0.57;61.12
73594;BME280;64760;53.404;23.498;2023-02-08T14:00:29;102396.41;;;0.18;61.71
73594;BME280;64760;53.404;23.498;2023-02-08T14:05:46;102393.00;;;0.16;61.65
73594;BME280;64760;53.404;23.498;2023-02-08T14:13:53;102395.72;;;0.13;62.40
73594;BME280;64760;53.404;23.498;2023-02-08T14:16:37;102384.56;;;-0.14;62.78
73594;BME280;64760;53.404;23.498;2023-02-08T14:19:20;102398.47;;;-0.11;62.67
73594;BME280;64760;53.404;23.498;2023-02-08T14:24:48;102387.78;;;-0.08;62.85
73594;BME280;64760;53.404;23.498;2023-02-08T14:27:25;102386.44;;;0.24;62.71
73594;BME280;64760;53.404;23.498;2023-02-08T14:32:31;102391.84;;;0.01;62.60
73594;BME280;64760;53.404;23.498;2023-02-08T14:35:03;102397.66;;;0.29;61.74
73594;BME280;64760;53.404;23.498;2023-02-08T14:37:33;102388.28;;;0.02;61.77
73594;BME280;64760;53.404;23.498;2023-02-08T14:42:55;102395.19;;;0.05;62.47
73594;BME280;64760;53.404;23.498;2023-02-08T14:45:40;102395.16;;;0.26;62.70
73594;BME280;64760;53.404;23.498;2023-02-08T14:50:47;102384.94;;;0.19;62.44
73594;BME280;64760;53.404;23.498;2023-02-08T14:53:24;102382.22;;;0.20;62.26
73594;BME280;64760;53.404;23.498;2023-02-08T14:56:05;102391.94;;;0.20;61.72
73594;BME280;64760;53.404;23.498;2023-02-08T14:58:40;102382.22;;;0.20;62.11
73594;BME280;64760;53.404;23.498;2023-02-08T15:03:45;102381.00;;;-0.13;63.57
73594;BME280;64760;53.404;23.498;2023-02-08T15:09:26;102375.94;;;-0.18;64.38
73594;BME280;64760;53.404;23.498;2023-02-08T15:14:26;102369.63;;;-0.35;65.14
73594;BME280;64760;53.404;23.498;2023-02-08T15:16:54;102369.56;;;-0.12;64.73
73594;BME280;64760;53.404;23.498;2023-02-08T15:19:34;102377.03;;;-0.23;64.37
73594;BME280;64760;53.404;23.498;2023-02-08T15:24:49;102382.88;;;-0.37;64.84
73594;BME280;64760;53.404;23.498;2023-02-08T15:27:28;102379.19;;;-0.33;65.23
73594;BME280;64760;53.404;23.498;2023-02-08T15:29:55;102369.13;;;-0.23;64.23